createdAt,value
2023-01-26T00:01:34.806Z,31.42
2023-01-26T00:06:57.205Z,31.85
2023-01-26T00:12:19.734Z,30.00
2023-01-26T00:17:42.989Z,31.25
2023-01-26T00:23:05.323Z,30.30
2023-01-26T00:28:27.545Z,31.05
2023-01-26T00:33:49.910Z,30.97
2023-01-26T00:39:12.409Z,31.17
2023-01-26T00:44:34.686Z,30.23
2023-01-26T00:49:58.525Z,30.30
2023-01-26T00:55:21.427Z,30.92
2023-01-26T01:00:45.407Z,31.27
2023-01-26T01:06:07.934Z,31.33
2023-01-26T01:11:30.861Z,31.87
2023-01-26T01:16:54.209Z,31.12
2023-01-26T01:22:16.431Z,30.50
2023-01-26T01:27:38.652Z,30.60
2023-01-26T01:33:01.391Z,30.57
2023-01-26T01:38:23.604Z,30.67
2023-01-26T01:43:47.453Z,33.37
2023-01-26T01:49:14.620Z,33.02
2023-01-26T01:54:44.687Z,33.80
2023-01-26T02:00:14.483Z,32.23
2023-01-26T02:05:40.323Z,31.60
2023-01-26T02:11:07.095Z,31.03
2023-01-26T02:16:31.097Z,31.90
2023-01-26T02:21:54.139Z,32.63
2023-01-26T02:27:16.463Z,33.33
2023-01-26T02:32:39.206Z,29.72
2023-01-26T02:38:01.618Z,31.85
2023-01-26T02:43:24.030Z,29.77
2023-01-26T02:49:04.242Z,31.75
2023-01-26T02:54:44.139Z,32.42
2023-01-26T03:00:06.486Z,31.10
2023-01-26T03:05:29.043Z,29.60
2023-01-26T03:10:52.579Z,29.13
2023-01-26T03:16:17.515Z,31.87
2023-01-26T03:21:59.263Z,29.85
2023-01-26T03:27:24.375Z,31.10
2023-01-26T03:33:02.644Z,30.00
2023-01-26T03:38:25.330Z,31.73
2023-01-26T03:44:05.381Z,33.50
2023-01-26T03:55:19.402Z,30.87
2023-01-26T04:00:41.780Z,29.97
2023-01-26T04:06:23.068Z,29.93
2023-01-26T04:11:45.300Z,30.87
2023-01-26T04:17:26.345Z,30.93
2023-01-26T04:22:50.689Z,31.37
2023-01-26T04:28:12.950Z,31.03
2023-01-26T04:33:35.205Z,31.13
2023-01-26T04:38:57.946Z,32.67
2023-01-26T04:44:20.218Z,30.57
2023-01-26T04:49:43.024Z,34.47
2023-01-26T04:55:05.256Z,31.33
2023-01-26T05:00:28.145Z,35.53
2023-01-26T05:05:54.135Z,35.67
2023-01-26T05:11:16.413Z,34.83
2023-01-26T05:16:39.238Z,33.33
2023-01-26T05:22:02.049Z,33.40
2023-01-26T05:27:24.747Z,31.70
2023-01-26T05:32:48.377Z,34.10
2023-01-26T05:38:10.679Z,31.00
2023-01-26T05:43:33.106Z,31.70
2023-01-26T05:48:55.385Z,30.60
2023-01-26T05:54:17.889Z,30.40
2023-01-26T05:59:40.200Z,27.60
2023-01-26T06:05:02.864Z,28.83
2023-01-26T06:10:26.685Z,28.97
2023-01-26T06:15:48.980Z,22.93
2023-01-26T06:21:12.412Z,22.73
2023-01-26T06:26:34.884Z,23.37
2023-01-26T06:31:57.095Z,21.37
2023-01-26T06:37:19.907Z,22.60
2023-01-26T06:42:42.135Z,21.70
2023-01-26T06:48:06.003Z,19.30
2023-01-26T06:53:43.158Z,19.43
2023-01-26T06:59:06.127Z,19.23
2023-01-26T07:04:28.704Z,19.27
2023-01-26T07:09:51.575Z,19.70
2023-01-26T07:15:14.450Z,18.83
2023-01-26T07:20:41.084Z,19.67
2023-01-26T07:26:03.301Z,17.73
2023-01-26T07:31:27.326Z,18.23
2023-01-26T07:36:49.561Z,17.52
2023-01-26T07:42:11.817Z,19.80
2023-01-26T07:47:34.749Z,18.82
2023-01-26T07:52:57.417Z,17.57
2023-01-26T07:58:20.621Z,17.07
2023-01-26T08:03:45.464Z,17.77
2023-01-26T08:09:08.432Z,17.77
2023-01-26T08:14:45.180Z,16.50
2023-01-26T08:19:54.672Z,18.97
2023-01-26T08:25:17.040Z,18.05
2023-01-26T08:30:39.398Z,18.53
2023-01-26T08:36:04.213Z,18.57
2023-01-26T08:41:26.770Z,18.23
2023-01-26T08:46:52.577Z,17.87
2023-01-26T08:52:15.022Z,17.73
2023-01-26T08:57:38.594Z,18.13
2023-01-26T09:03:11.677Z,18.05
2023-01-26T09:08:35.060Z,18.20
2023-01-26T09:13:58.273Z,18.57
2023-01-26T09:19:21.491Z,16.30
2023-01-26T09:24:43.893Z,16.30
2023-01-26T09:30:07.154Z,13.67
2023-01-26T09:35:29.848Z,15.70
2023-01-26T09:41:00.052Z,16.42
2023-01-26T09:46:47.856Z,17.00
2023-01-26T09:52:14.977Z,18.17
2023-01-26T09:57:54.160Z,17.03
2023-01-26T10:03:56.560Z,17.23
2023-01-26T10:09:33.644Z,17.30
2023-01-26T10:15:10.164Z,17.40
2023-01-26T10:20:48.915Z,16.50
2023-01-26T10:26:27.617Z,16.77
2023-01-26T10:31:51.692Z,16.00
2023-01-26T10:43:17.773Z,17.63
2023-01-26T10:48:41.572Z,16.33
2023-01-26T10:54:20.100Z,15.40
2023-01-26T11:00:08.719Z,17.00
2023-01-26T11:05:34.311Z,15.67
2023-01-26T11:11:07.501Z,16.70
2023-01-26T11:16:35.968Z,16.10
2023-01-26T11:22:13.968Z,15.10
2023-01-26T11:28:05.599Z,16.33
2023-01-26T11:33:41.935Z,17.53
2023-01-26T11:39:18.291Z,17.53
2023-01-26T11:45:08.596Z,16.77
2023-01-26T11:56:28.073Z,17.03
2023-01-26T12:02:04.635Z,15.60
2023-01-26T12:07:31.996Z,14.87
2023-01-26T12:12:59.416Z,16.05
2023-01-26T12:18:53.252Z,16.27
2023-01-26T12:24:09.317Z,22.83
2023-01-26T12:29:51.253Z,16.73
2023-01-26T12:35:15.796Z,18.13
2023-01-26T12:41:07.027Z,18.53
2023-01-26T12:46:30.797Z,17.80
2023-01-26T12:51:57.938Z,17.53
2023-01-26T12:57:25.041Z,18.33
2023-01-26T13:02:51.354Z,18.73
2023-01-26T13:08:39.513Z,18.48
2023-01-26T13:14:30.021Z,17.60
2023-01-26T13:25:28.715Z,19.00
2023-01-26T13:30:58.418Z,19.02
2023-01-26T13:36:35.169Z,20.17
2023-01-26T13:42:00.544Z,20.10
2023-01-26T13:47:31.380Z,20.27
2023-01-26T13:52:55.229Z,19.20
2023-01-26T13:58:35.335Z,20.20
2023-01-26T14:03:59.771Z,18.97
2023-01-26T14:09:24.387Z,20.87
2023-01-26T14:14:49.381Z,19.10
2023-01-26T14:20:26.889Z,20.00
2023-01-26T14:26:03.668Z,20.80
2023-01-26T14:31:37.467Z,19.30
2023-01-26T14:37:16.267Z,21.07
2023-01-26T14:42:39.634Z,20.33
2023-01-26T14:48:01.970Z,21.17
2023-01-26T14:53:31.991Z,21.77
2023-01-26T14:58:56.125Z,22.73
2023-01-26T15:04:31.915Z,23.20
2023-01-26T15:10:00.249Z,21.53
2023-01-26T15:15:26.968Z,22.47
2023-01-26T15:20:54.047Z,21.27
2023-01-26T15:26:21.129Z,22.93
2023-01-26T15:31:47.619Z,22.33
2023-01-26T15:37:14.811Z,22.00
2023-01-26T15:42:47.249Z,23.65
2023-01-26T15:48:09.628Z,21.67
2023-01-26T15:53:34.141Z,21.17
2023-01-26T15:58:56.941Z,23.63
2023-01-26T16:04:19.493Z,20.83
2023-01-26T16:09:41.921Z,22.37
2023-01-26T16:15:05.012Z,23.43
2023-01-26T16:20:29.018Z,24.67
2023-01-26T16:25:51.323Z,22.00
2023-01-26T16:31:21.539Z,23.90
2023-01-26T16:36:43.864Z,24.02
2023-01-26T16:42:06.288Z,25.37
2023-01-26T16:47:29.489Z,24.67
2023-01-26T16:52:53.672Z,24.17
2023-01-26T16:58:17.356Z,23.75
2023-01-26T17:03:40.196Z,25.20
2023-01-26T17:09:03.177Z,24.90
2023-01-26T17:14:25.631Z,25.03
2023-01-26T17:19:49.781Z,44.30
2023-01-26T17:25:14.544Z,24.47
2023-01-26T17:30:37.356Z,24.77
2023-01-26T17:36:06.708Z,25.95
2023-01-26T17:41:30.123Z,25.50
2023-01-26T17:46:52.989Z,25.60
2023-01-26T17:52:20.347Z,26.87
2023-01-26T17:57:45.211Z,25.10
2023-01-26T18:03:07.506Z,25.75
2023-01-26T18:08:30.679Z,25.50
2023-01-26T18:13:53.063Z,29.65
2023-01-26T18:19:15.913Z,29.72
2023-01-26T18:24:38.178Z,29.90
2023-01-26T18:30:00.379Z,31.73
2023-01-26T18:35:24.154Z,31.52
2023-01-26T18:40:46.353Z,33.85
2023-01-26T18:46:08.851Z,33.40
2023-01-26T18:51:31.469Z,31.50
2023-01-26T18:56:53.885Z,33.40
2023-01-26T19:02:19.897Z,45.50
2023-01-26T19:07:42.896Z,32.97
2023-01-26T19:13:07.210Z,30.70
2023-01-26T19:18:29.737Z,30.77
2023-01-26T19:23:52.512Z,32.03
2023-01-26T19:29:15.861Z,31.15
2023-01-26T19:34:38.903Z,31.73
2023-01-26T19:40:01.285Z,57.57
2023-01-26T19:45:25.211Z,32.80
2023-01-26T19:50:47.631Z,27.95
2023-01-26T19:56:14.595Z,27.33
2023-01-26T20:01:43.430Z,33.13
2023-01-26T20:07:08.353Z,18.90
2023-01-26T20:12:31.167Z,23.00
2023-01-26T20:17:53.617Z,25.03
2023-01-26T20:23:15.915Z,25.32
2023-01-26T20:28:40.785Z,23.43
2023-01-26T20:34:05.312Z,24.47
2023-01-26T20:39:31.123Z,23.73
2023-01-26T20:44:55.263Z,24.00
2023-01-26T20:50:17.993Z,23.97
2023-01-26T20:55:40.610Z,23.43
2023-01-26T21:01:05.807Z,22.57
2023-01-26T21:06:31.324Z,25.07
2023-01-26T21:11:54.226Z,24.00
2023-01-26T21:17:20.607Z,24.47
2023-01-26T21:22:44.701Z,25.05
2023-01-26T21:28:08.094Z,22.85
2023-01-26T21:33:30.710Z,24.12
2023-01-26T21:38:56.969Z,24.67
2023-01-26T21:44:32.595Z,23.30
2023-01-26T21:49:56.373Z,22.27
2023-01-26T21:55:18.977Z,25.13
2023-01-26T22:00:42.953Z,27.83
2023-01-26T22:06:12.175Z,25.73
2023-01-26T22:11:35.085Z,26.60
2023-01-26T22:16:58.543Z,26.00
2023-01-26T22:22:20.894Z,27.30
2023-01-26T22:27:44.854Z,27.33
2023-01-26T22:33:07.662Z,26.83
2023-01-26T22:38:29.937Z,27.42
2023-01-26T22:43:54.764Z,28.45
2023-01-26T22:49:17.621Z,26.77
2023-01-26T22:54:39.906Z,28.32
2023-01-26T23:00:02.179Z,26.95
2023-01-26T23:05:24.634Z,26.33
2023-01-26T23:10:47.651Z,25.80
2023-01-26T23:16:10.181Z,27.40
2023-01-26T23:21:33.300Z,28.77
2023-01-26T23:26:55.556Z,28.65
2023-01-26T23:32:18.452Z,29.13
2023-01-26T23:37:40.743Z,28.85
2023-01-26T23:43:15.795Z,41.55
2023-01-26T23:48:27.431Z,30.20
2023-01-26T23:53:50.652Z,28.83
2023-01-26T23:59:12.887Z,28.25
